Historyczne dane pomiarowe

Dodano dane terminowe – wersja testowa.

Dane z okresu 1951-2019

Wersja bazy: 1.34 [2019-03-16, lista zmian], aktualizacja planowana na 2019-04-15

Dane meteo z obszaru Polski uzyskane na podstawie danych udostępnionych przez Instytut Meteorologii i Gospodarki Wodnej – Państwowy Instytut Badawczy.

 

Wybierz Datę:    

       

TemperaturaWilgotnośćWiatrCiśnienieOpadyŚniegCzas trwania zjawisk
 Stacja t tx tn tng RH VA  wxwx mslp ppp RRR   cm mm wxwxwxwxwxwxwx
2019-03-31 2.2 5.1 -0.2- 48.1 3.3 1.9 3.9 0.0 0.0- 801.2 0.0 0.0 0.0159 4.0 12.3--- 3.7---
2019-03-30 3.4 6.6 -1.1- 34.3 2.7 4.9 4.3 0.0 0.0- 805.1 0.0 0.0 0.0168 3.6 12.3-------
2019-03-29 -2.4 0.2 -7.6- 49.4 2.5 4.1 4.8 0.0 0.0- 807.8 0.0 0.0 0.0177 3.5 11.8-------
2019-03-28 -5.7 -3.7 -9.8- 95.9 3.8 7.9 5.0 0.0 0.0- 805.4 0.3 0.3 0.0177 3.5 0.0- 0.8- 19.7---
2019-03-27 -9.3 -5.9-13.3- 85.8 2.6 4.0 4.8 2.2 0.0- 800.9 0.0 0.0 0.0180 3.6 12.0- 3.4- 4.3---
2019-03-26 -8.6 -7.5 -9.4- 92.3 2.9 7.6 6.6 4.3 0.0- 795.3 6.6 2.2 4.4175 3.7 1.1- 15.2- 22.7---
2019-03-25 -5.8 0.5 -7.9- 94.6 3.8 7.8 6.6 0.8 0.0- 791.5 7.0 1.6 5.4164 4.0 1.4- 15.9- 22.3---
2019-03-24 0.6 1.7 -0.1- 92.0 5.9 7.3 5.1 0.0 0.0- 802.0 0.0 0.0 0.0172 3.6 1.7 0.7-- 15.9---
2019-03-23 2.6 4.9 -0.5- 47.4 3.4 2.1 2.8 0.0 0.0- 807.1 0.0 0.0 0.0177 3.5 11.7--- 1.7---
2019-03-22 0.4 1.7 -2.7- 84.3 5.3 5.0 5.1 0.0 0.0- 809.6 0.0 0.0 0.0181 3.5 1.6--- 8.8---
2019-03-21 -2.4 -0.2 -7.8- 53.0 2.8 5.6 4.6 0.0 0.0- 809.3 0.0 0.0 0.0182 3.4 10.4--- 4.6---
2019-03-20 -8.3 -4.4-11.6- 84.8 2.8 2.9 4.3 0.0 0.0- 805.2 0.0 0.0 0.0184 3.4 9.1--- 3.5---
2019-03-19 -8.5 -6.0-10.3- 92.4 3.0 7.3 3.1 0.0 0.0- 798.9 0.0 0.0 0.0187 3.3 0.6- 5.3- 19.6---
2019-03-18 -5.4 1.9 -8.1- 93.0 3.9 7.6 4.5 0.2 0.0- 792.4 3.1 3.1 0.0180 3.4 0.0- 10.8- 17.3---
2019-03-17 1.5 5.8 -4.0- 60.8 3.8 5.4 11.3 18.7 2.3- 791.3 1.1 0.0 1.1185 3.4 11.6--- 1.8---
2019-03-16 -5.9 -1.8 -8.6- 94.6 3.8 7.9 11.6 19.5 0.5- 786.7 1.4 0.0 1.4186 3.4 0.0- 6.8- 15.0---
2019-03-15 -6.2 -5.9 -7.5- 94.3 3.6 7.6 11.4 16.0 1.8- 783.3 5.5 0.9 4.6185 3.4 0.4- 11.7- 22.7---
2019-03-14 -7.5 -6.3 -8.9- 93.3 3.2 7.9 10.0 10.8 1.5- 785.7 4.7 1.8 2.9182 3.4 0.3- 14.6- 24.0---
2019-03-13 -8.4 -5.7-11.4- 83.8 2.7 6.0 12.5 14.3 7.8- 789.4 0.4 0.1 0.3185 3.3 0.4- 5.9- 11.1---
2019-03-12-10.8 -9.6-12.0- 90.3 2.4 6.3 6.0 2.2 0.0- 793.1 0.7 0.7 0.0185 3.3 0.3- 13.8- 16.3---
2019-03-11 -9.1 -1.7-10.4- 90.8 2.8 7.6 12.5 8.8 3.3- 787.4 6.5 2.3 4.2177 3.5 2.5- 16.4- 18.7---
2019-03-10 -5.2 -2.1 -9.5- 90.4 3.9 7.5 14.6 23.0 8.8- 787.3 8.4 0.7 7.7178 3.4 1.4- 12.6- 15.2---
2019-03-09 -5.2 -3.1 -7.1- 88.8 3.7 6.3 10.4 13.8 2.7- 793.4 4.1 0.3 3.8177 3.5 3.7- 9.0- 11.8---
2019-03-08 -2.7 0.7 -3.5- 82.1 4.1 6.0 7.3 4.2 0.0- 793.8 0.0 0.0 0.0180 3.6 2.0--- 0.4---
2019-03-07 -2.4 0.2 -6.4- 97.8 5.0 7.8 15.8 22.7 11.8- 789.3 0.4 0.0 0.4180 3.5 0.6- 0.9- 19.3---
2019-03-06 -7.0 -4.8 -9.5- 88.0 3.2 5.8 10.0 12.0 5.5- 792.9 0.1 0.1 0.0182 3.5 7.3- 7.2- 6.8---
2019-03-05 -6.7 -1.2 -9.2- 87.4 3.2 6.0 10.9 13.3 0.0- 785.6 3.1 0.0 3.1181 3.5 5.5- 7.4- 7.7---
2019-03-04 -1.1 1.4 -4.1- 83.3 4.7 7.5 11.1 20.0 0.8- 786.5 1.9 0.0 1.9181 3.5 5.7- 1.8- 7.1---
2019-03-03 -5.8 -2.6-11.4- 94.5 3.8 7.4 8.9 10.8 0.0- 792.3 0.0 0.0 0.0182 3.5 0.1- 0.1- 19.0---
2019-03-02-10.8 -5.2-13.4- 89.6 2.4 7.0 4.9 0.0 0.0- 790.1 0.3 0.2 0.1182 3.5 4.2- 9.6- 12.5---
2019-03-01 -5.6 -3.2 -6.3- 95.0 3.9 8.0 7.6 3.2 0.0- 788.0 1.9 0.7 1.2179 3.6 0.0- 6.2- 24.0---
2019-02-28 -1.8 0.6 -3.4- 63.3 3.3 4.1 9.9 15.3 0.0- 792.0 0.0 0.0 0.0179 3.5 9.9- 0.5- 4.5---
2019-02-27 -5.6 -2.5 -7.8- 68.3 2.6 5.0 9.5 12.5 0.0- 800.9 0.0 0.0 0.0181 3.4 8.3- 5.0- 8.3---
2019-02-26 -5.3 -3.2 -7.2- 79.4 3.3 7.5 8.6 17.7 0.0- 802.5 1.3 0.2 1.1181 3.4 0.2- 6.6- 17.2---
2019-02-25 -3.7 -1.6 -6.3- 76.3 3.6 6.9 9.0 9.8 0.0- 808.7 0.0 0.0 0.0181 3.4 5.4--- 4.2---
2019-02-24 -6.1 -4.7-12.4- 72.0 2.9 7.6 8.0 4.7 0.0- 808.4 0.1 0.1 0.0182 3.4 0.0- 2.6- 16.6---
2019-02-23-15.2-10.7-20.2- 56.6 1.0 5.1 7.6 0.5 0.0- 807.0 0.0 0.0 0.0188 3.2 7.9--- 3.3---
2019-02-22-11.6 -4.6-18.0- 89.4 2.5 7.9 10.1 16.2 0.0- 798.7 10.0 10.0 0.0180 3.4 0.1- 13.7- 24.0---
2019-02-21 -6.0 -3.0 -8.8- 94.4 3.7 7.5 5.1 0.5 0.0- 800.0 6.0 0.1 5.9178 3.4 2.0- 15.8- 17.9---
2019-02-20 -7.2 -0.5 -8.3- 93.6 3.4 8.0 6.5 0.0 0.0- 797.2 1.0 0.7 0.3176 3.4 0.0- 12.9- 23.7---
2019-02-19 -0.1 2.1 -1.7- 33.1 1.9 2.8 7.5 6.7 0.0- 798.6 0.1 0.0 0.1178 3.4 9.8--- 1.7---
2019-02-18 1.3 2.7 -0.2- 28.5 1.9 4.0 3.4 0.0 0.0- 803.4 0.0 0.0 0.0185 3.4 9.5-------
2019-02-17 2.0 3.8 -0.3- 25.1 1.8 2.0 4.0 0.0 0.0- 806.4 0.0 0.0 0.0189 3.3 9.7-------
2019-02-16 0.0 1.3 -2.3- 61.3 3.7 2.6 5.0 0.0 0.0- 807.8 0.0 0.0 0.0190 3.3 9.4-------
2019-02-15 -3.1 0.0 -7.0- 80.3 3.8 5.4 6.4 0.0 0.0- 807.9 0.0 0.0 0.0200 3.0 9.4--- 0.4---
2019-02-14 -6.4 -4.9 -7.2- 94.4 3.6 5.3 7.6 2.0 0.0- 807.0 0.0 0.0 0.0207 3.0 6.6- 5.1- 17.4---
2019-02-13 -9.3 -4.6-13.6- 91.6 2.9 7.9 5.5 0.0 0.0- 803.5 1.8 1.0 0.8210 2.9 0.0- 18.8- 20.0---
2019-02-12-11.9 -8.2-13.0- 89.5 2.2 8.0 6.9 1.8 0.0- 792.8 11.1 7.1 4.0191 3.0 0.0- 24.0- 24.0---
2019-02-11 -7.2 -4.2 -8.6- 93.9 3.4 7.8 6.4 3.5 0.0- 784.3 5.6 1.5 4.1183 3.3 0.2- 15.6- 21.4---
2019-02-10 -5.3 -3.1 -6.8- 90.5 3.7 6.4 14.3 19.7 9.3- 790.2 5.0 0.1 4.9183 3.1 4.0- 10.4- 11.0---
2019-02-09 -4.2 -2.1 -6.0- 62.1 2.8 4.4 11.3 17.3 3.0- 794.2 0.0 0.0 0.0184 3.2 4.9-------
2019-02-08 -3.8 -0.5 -5.9- 73.8 3.4 4.3 4.1 0.0 0.0- 796.6 0.0 0.0 0.0184 3.2 2.1- 0.9- 5.6---
2019-02-07 -1.5 1.4 -3.8- 28.4 1.6 2.4 8.0 10.5 0.0- 797.9 0.0 0.0 0.0184 3.1 8.9-------
2019-02-06 -5.9 -3.7 -9.6- 32.9 1.2 0.4 6.4 0.0 0.0- 801.2 0.0 0.0 0.0185 3.1 8.8-------
2019-02-05 -6.2 -3.3 -8.9- 86.9 3.3 1.1 4.1 0.0 0.0- 801.9 0.0 0.0 0.0188 3.1 8.6-------
2019-02-04 -7.3 -1.0-10.0- 93.8 3.4 7.1 4.5 0.2 0.0- 798.3 0.0 0.0 0.0188 3.1 0.2- 3.5- 20.3---
2019-02-03 -0.7 0.0 -1.4- 99.5 5.7 7.6 10.5 14.7 0.5- 788.6 7.4 0.2 7.2185 3.0 1.9 0.5 6.7- 13.7---
2019-02-02 -0.9 -0.5 -3.4- 99.5 5.7 8.0 16.9 21.5 14.2- 783.6 0.0 0.0 0.0196 2.8 0.0--- 24.0---
2019-02-01 -6.9 -3.0-11.0- 93.6 3.5 7.9 15.1 22.0 15.0- 781.8 0.0 0.0 0.0199 2.7 0.0--- 24.0---
2019-01-31-10.9 -8.7-12.5- 82.0 2.2 3.1 7.4 4.5 0.0- 780.3 0.0 0.0 0.0201 2.6 6.8--- 2.6---
243.8 ms

 

Źródłem pochodzenia danych jest Instytut Meteorologii i Gospodarki Wodnej – Państwowy Instytut Badawczy. Dane Instytutu Meteorologii i Gospodarki Wodnej – Państwowego Instytutu Badawczego zostały przetworzone.

Dane źródłowe można odnaleźć na stronie https://dane.imgw.pl